createdAt,value
2023-05-22T00:02:25.614Z,3.40
2023-05-22T00:04:52.835Z,3.60
2023-05-22T00:07:20.848Z,4.00
2023-05-22T00:09:47.972Z,4.35
2023-05-22T00:12:15.104Z,4.38
2023-05-22T00:14:44.540Z,3.75
2023-05-22T00:17:15.141Z,4.22
2023-05-22T00:19:42.500Z,4.32
2023-05-22T00:22:10.269Z,3.80
2023-05-22T00:24:37.392Z,3.83
2023-05-22T00:27:04.928Z,4.30
2023-05-22T00:29:32.013Z,4.20
2023-05-22T00:31:59.355Z,4.07
2023-05-22T00:34:26.524Z,4.38
2023-05-22T00:36:54.360Z,4.63
2023-05-22T00:39:21.920Z,4.20
2023-05-22T00:41:49.099Z,4.80
2023-05-22T00:44:20.786Z,4.03
2023-05-22T00:46:48.145Z,4.30
2023-05-22T00:49:15.474Z,4.40
2023-05-22T00:51:45.685Z,4.40
2023-05-22T00:54:13.917Z,4.05
2023-05-22T00:56:42.330Z,4.65
2023-05-22T00:59:13.481Z,4.07
2023-05-22T01:01:43.057Z,4.43
2023-05-22T01:04:12.293Z,4.35
2023-05-22T01:06:41.527Z,4.70
2023-05-22T01:09:09.868Z,4.55
2023-05-22T01:11:59.147Z,4.80
2023-05-22T01:15:04.313Z,4.00
2023-05-22T01:17:48.780Z,4.43
2023-05-22T01:23:24.274Z,4.28
2023-05-22T01:26:47.494Z,4.65
2023-05-22T01:29:19.264Z,4.63
2023-05-22T01:31:50.502Z,4.38
2023-05-22T01:34:18.866Z,4.13
2023-05-22T01:36:53.396Z,3.58
2023-05-22T01:39:21.829Z,3.63
2023-05-22T01:41:49.505Z,3.72
2023-05-22T01:44:16.701Z,4.15
2023-05-22T01:46:43.832Z,4.30
2023-05-22T01:49:11.104Z,4.50
2023-05-22T01:51:57.643Z,4.35
2023-05-22T01:55:35.404Z,4.25
2023-05-22T01:58:09.075Z,4.28
2023-05-22T02:00:43.871Z,3.97
2023-05-22T02:03:17.901Z,4.78
2023-05-22T02:05:48.692Z,3.90
2023-05-22T02:08:17.324Z,4.20
2023-05-22T02:11:11.600Z,4.03
2023-05-22T02:13:39.687Z,4.03
2023-05-22T02:16:07.732Z,3.72
2023-05-22T02:18:34.990Z,4.40
2023-05-22T02:21:03.444Z,4.30
2023-05-22T02:23:32.389Z,3.90
2023-05-22T02:26:04.890Z,3.80
2023-05-22T02:28:32.404Z,4.25
2023-05-22T02:31:00.286Z,4.40
2023-05-22T02:33:30.119Z,4.28
2023-05-22T02:35:57.371Z,4.43
2023-05-22T02:38:24.637Z,4.38
2023-05-22T02:40:52.407Z,3.88
2023-05-22T02:43:19.616Z,4.28
2023-05-22T02:45:46.837Z,3.75
2023-05-22T02:48:14.051Z,4.10
2023-05-22T02:50:45.370Z,4.25
2023-05-22T02:53:14.522Z,4.10
2023-05-22T02:55:42.121Z,4.13
2023-05-22T02:58:12.564Z,4.28
2023-05-22T03:00:40.331Z,4.20
2023-05-22T03:03:07.923Z,4.25
2023-05-22T03:05:35.269Z,3.72
2023-05-22T03:08:02.454Z,3.90
2023-05-22T03:10:31.727Z,4.20
2023-05-22T03:12:59.709Z,3.72
2023-05-22T03:15:27.096Z,4.05
2023-05-22T03:17:58.684Z,4.00
2023-05-22T03:20:26.640Z,3.95
2023-05-22T03:22:53.844Z,4.00
2023-05-22T03:25:22.081Z,4.07
2023-05-22T03:27:50.247Z,3.90
2023-05-22T03:30:17.568Z,3.70
2023-05-22T03:32:55.777Z,3.88
2023-05-22T03:35:24.947Z,4.35
2023-05-22T03:37:52.382Z,3.78
2023-05-22T03:40:45.047Z,3.97
2023-05-22T03:43:13.545Z,4.10
2023-05-22T03:45:40.822Z,3.90
2023-05-22T03:48:11.099Z,4.30
2023-05-22T03:50:38.481Z,3.95
2023-05-22T03:53:06.490Z,4.30
2023-05-22T03:55:33.799Z,3.75
2023-05-22T03:58:01.398Z,4.60
2023-05-22T04:00:28.600Z,3.78
2023-05-22T04:02:58.981Z,4.25
2023-05-22T04:05:26.818Z,4.60
2023-05-22T04:08:04.309Z,4.00
2023-05-22T04:10:32.124Z,3.75
2023-05-22T04:12:59.858Z,4.07
2023-05-22T04:15:27.723Z,4.10
2023-05-22T04:17:55.282Z,4.47
2023-05-22T04:20:25.253Z,4.07
2023-05-22T04:22:54.578Z,3.95
2023-05-22T04:25:22.307Z,3.90
2023-05-22T04:27:59.692Z,3.50
2023-05-22T04:30:26.934Z,3.78
2023-05-22T04:32:55.208Z,4.10
2023-05-22T04:35:23.296Z,4.05
2023-05-22T04:37:50.424Z,3.95
2023-05-22T04:40:19.811Z,3.78
2023-05-22T04:43:13.916Z,4.00
2023-05-22T04:45:42.425Z,3.90
2023-05-22T04:48:09.569Z,4.00
2023-05-22T04:50:39.428Z,3.85
2023-05-22T04:53:07.086Z,3.92
2023-05-22T04:55:34.419Z,4.05
2023-05-22T04:58:03.014Z,3.72
2023-05-22T05:00:30.224Z,3.83
2023-05-22T05:02:58.091Z,4.10
2023-05-22T05:05:36.244Z,4.13
2023-05-22T05:08:03.548Z,3.88
2023-05-22T05:10:30.842Z,4.00
2023-05-22T05:13:25.949Z,4.43
2023-05-22T05:15:54.771Z,3.58
2023-05-22T05:18:22.675Z,3.13
2023-05-22T05:20:59.136Z,3.50
2023-05-22T05:23:26.496Z,3.70
2023-05-22T05:25:54.936Z,3.42
2023-05-22T05:28:22.347Z,4.45
2023-05-22T05:30:49.640Z,3.75
2023-05-22T05:33:26.076Z,3.60
2023-05-22T05:36:05.094Z,3.53
2023-05-22T05:38:37.377Z,3.28
2023-05-22T05:41:06.216Z,3.38
2023-05-22T05:43:34.951Z,3.60
2023-05-22T05:46:06.325Z,3.53
2023-05-22T05:48:34.169Z,3.90
2023-05-22T05:51:05.373Z,3.60
2023-05-22T05:53:37.885Z,3.38
2023-05-22T06:01:02.948Z,3.33
2023-05-22T06:03:31.469Z,3.13
2023-05-22T06:06:09.316Z,3.40
2023-05-22T06:08:55.099Z,3.40
2023-05-22T06:11:28.284Z,3.78
2023-05-22T06:13:55.911Z,3.42
2023-05-22T06:16:23.114Z,4.03
2023-05-22T06:18:52.745Z,3.42
2023-05-22T06:21:23.024Z,3.42
2023-05-22T06:23:51.086Z,3.40
2023-05-22T06:26:19.468Z,3.67
2023-05-22T06:28:47.183Z,3.70
2023-05-22T06:31:14.524Z,3.50
2023-05-22T06:33:45.339Z,4.53
2023-05-22T06:36:12.935Z,3.40
2023-05-22T06:38:41.563Z,3.75
2023-05-22T06:41:19.801Z,3.28
2023-05-22T06:43:47.511Z,3.58
2023-05-22T06:46:15.068Z,3.38
2023-05-22T06:49:14.156Z,4.35
2023-05-22T06:51:47.104Z,3.78
2023-05-22T06:54:21.574Z,3.80
2023-05-22T06:56:52.871Z,3.33
2023-05-22T06:59:21.214Z,3.38
2023-05-22T07:02:24.943Z,3.35
2023-05-22T07:05:22.256Z,4.15
2023-05-22T07:07:58.883Z,3.45
2023-05-22T07:10:29.435Z,3.42
2023-05-22T07:13:00.027Z,3.80
2023-05-22T07:15:33.069Z,3.30
2023-05-22T07:18:03.425Z,3.45
2023-05-22T07:20:30.866Z,3.88
2023-05-22T07:23:09.290Z,3.13
2023-05-22T07:25:38.474Z,3.50
2023-05-22T07:28:09.582Z,3.40
2023-05-22T07:30:47.420Z,3.60
2023-05-22T07:33:16.545Z,3.38
2023-05-22T07:35:46.363Z,3.40
2023-05-22T07:38:13.868Z,3.50
2023-05-22T07:40:48.558Z,3.25
2023-05-22T07:43:15.773Z,3.15
2023-05-22T07:45:44.309Z,3.35
2023-05-22T07:48:14.682Z,3.03
2023-05-22T07:50:45.594Z,3.45
2023-05-22T07:53:13.423Z,3.20
2023-05-22T07:58:37.156Z,3.78
2023-05-22T08:01:09.492Z,4.07
2023-05-22T08:03:37.035Z,3.72
2023-05-22T08:06:04.898Z,3.78
2023-05-22T08:08:32.973Z,3.50
2023-05-22T08:11:04.033Z,3.08
2023-05-22T08:13:59.735Z,3.75
2023-05-22T08:16:27.178Z,4.07
2023-05-22T08:18:54.426Z,3.88
2023-05-22T08:21:26.998Z,3.88
2023-05-22T08:23:54.149Z,3.60
2023-05-22T08:26:26.180Z,3.60
2023-05-22T08:28:53.750Z,3.33
2023-05-22T08:31:21.303Z,3.15
2023-05-22T08:33:49.428Z,3.05
2023-05-22T08:36:16.938Z,3.35
2023-05-22T08:38:44.836Z,3.92
2023-05-22T08:41:12.177Z,3.50
2023-05-22T08:43:45.111Z,3.30
2023-05-22T08:46:12.351Z,3.78
2023-05-22T08:48:42.127Z,3.90
2023-05-22T08:51:15.301Z,3.05
2023-05-22T08:53:44.143Z,3.08
2023-05-22T08:56:11.477Z,3.30
2023-05-22T08:58:38.710Z,3.10
2023-05-22T09:01:07.624Z,3.20
2023-05-22T09:03:37.007Z,3.38
2023-05-22T09:06:10.517Z,3.35
2023-05-22T09:08:38.679Z,2.80
2023-05-22T09:11:19.403Z,3.00
2023-05-22T09:13:46.775Z,2.92
2023-05-22T09:16:15.132Z,2.92
2023-05-22T09:18:42.834Z,3.15
2023-05-22T09:21:25.900Z,3.00
2023-05-22T09:24:01.374Z,3.28
2023-05-22T09:26:30.530Z,2.53
2023-05-22T09:29:00.417Z,2.47
2023-05-22T09:31:58.436Z,2.90
2023-05-22T09:34:33.007Z,2.60
2023-05-22T09:37:04.014Z,2.40
2023-05-22T09:39:51.710Z,2.70
2023-05-22T09:42:21.100Z,2.70
2023-05-22T09:44:51.766Z,2.88
2023-05-22T09:47:23.184Z,2.60
2023-05-22T09:49:50.374Z,3.08
2023-05-22T09:52:19.769Z,3.60
2023-05-22T09:54:56.013Z,3.08
2023-05-22T09:57:25.705Z,2.30
2023-05-22T09:59:59.475Z,2.42
2023-05-22T10:02:29.018Z,2.60
2023-05-22T10:04:57.368Z,2.42
2023-05-22T10:07:36.651Z,2.95
2023-05-22T10:10:12.781Z,2.80
2023-05-22T10:12:49.909Z,2.65
2023-05-22T10:15:21.513Z,2.88
2023-05-22T10:17:49.644Z,2.83
2023-05-22T10:20:17.330Z,3.55
2023-05-22T10:22:45.969Z,2.60
2023-05-22T10:25:13.414Z,3.00
2023-05-22T10:27:41.721Z,2.92
2023-05-22T10:30:25.198Z,2.63
2023-05-22T10:33:19.690Z,3.10
2023-05-22T10:35:55.905Z,2.83
2023-05-22T10:38:44.818Z,3.05
2023-05-22T10:41:17.385Z,3.00
2023-05-22T10:43:48.515Z,3.00
2023-05-22T10:46:19.009Z,3.03
2023-05-22T10:48:48.612Z,3.15
2023-05-22T10:52:05.054Z,3.13
2023-05-22T10:54:49.234Z,2.75
2023-05-22T11:00:18.793Z,2.58
2023-05-22T11:05:53.704Z,3.08
2023-05-22T11:08:38.076Z,3.58
2023-05-22T11:11:14.738Z,2.92
2023-05-22T11:13:42.626Z,3.33
2023-05-22T11:16:10.556Z,2.83
2023-05-22T11:18:38.862Z,2.63
2023-05-22T11:21:09.453Z,2.83
2023-05-22T11:23:37.582Z,2.42
2023-05-22T11:26:26.368Z,2.75
2023-05-22T11:28:59.805Z,2.72
2023-05-22T11:31:27.431Z,2.90
2023-05-22T11:37:02.143Z,2.75
2023-05-22T11:39:33.036Z,2.33
2023-05-22T11:42:00.185Z,2.30
2023-05-22T11:44:28.118Z,2.80
2023-05-22T11:46:58.005Z,2.97
2023-05-22T11:49:25.420Z,2.33
2023-05-22T11:51:52.774Z,2.35
2023-05-22T11:54:20.380Z,2.97
2023-05-22T11:56:48.410Z,3.10
2023-05-22T11:59:16.604Z,3.00
2023-05-22T12:01:43.902Z,2.92
2023-05-22T12:04:11.218Z,2.25
2023-05-22T12:06:38.741Z,2.53
2023-05-22T12:09:07.347Z,3.47
2023-05-22T12:11:37.896Z,2.90
2023-05-22T12:14:05.262Z,2.50
2023-05-22T12:16:36.774Z,2.47
2023-05-22T12:19:33.688Z,2.78
2023-05-22T12:22:01.134Z,2.40
2023-05-22T12:24:38.711Z,2.63
2023-05-22T12:27:12.562Z,2.78
2023-05-22T12:29:40.288Z,3.15
2023-05-22T12:32:14.229Z,2.92
2023-05-22T12:34:48.211Z,2.88
2023-05-22T12:37:25.356Z,2.80
2023-05-22T12:39:59.985Z,2.70
2023-05-22T12:42:28.015Z,2.63
2023-05-22T12:45:00.775Z,3.00
2023-05-22T12:47:28.145Z,2.93
2023-05-22T12:49:55.554Z,2.90
2023-05-22T12:52:22.678Z,2.78
2023-05-22T12:54:50.942Z,2.55
2023-05-22T12:57:17.990Z,2.67
2023-05-22T12:59:45.147Z,3.00
2023-05-22T13:02:12.284Z,2.78
2023-05-22T13:04:39.619Z,2.58
2023-05-22T13:07:06.715Z,2.67
2023-05-22T13:09:33.896Z,2.85
2023-05-22T13:12:01.092Z,3.00
2023-05-22T13:14:28.194Z,2.97
2023-05-22T13:16:55.446Z,3.35
2023-05-22T13:19:22.630Z,2.85
2023-05-22T13:21:49.740Z,2.97
2023-05-22T13:24:16.909Z,2.92
2023-05-22T13:26:43.948Z,2.63
2023-05-22T13:29:11.106Z,2.97
2023-05-22T13:31:38.368Z,2.80
2023-05-22T13:34:05.731Z,3.17
2023-05-22T13:36:34.198Z,2.75
2023-05-22T13:39:01.359Z,2.47
2023-05-22T13:41:28.484Z,3.05
2023-05-22T13:43:55.626Z,2.92
2023-05-22T13:46:22.905Z,2.95
2023-05-22T13:48:50.120Z,2.92
2023-05-22T13:51:17.273Z,2.50
2023-05-22T13:53:44.539Z,2.45
2023-05-22T13:56:11.724Z,2.72
2023-05-22T13:58:38.887Z,2.92
2023-05-22T14:01:06.219Z,2.90
2023-05-22T14:03:33.806Z,2.40
2023-05-22T14:06:01.289Z,2.70
2023-05-22T14:08:28.464Z,2.40
2023-05-22T14:10:56.005Z,2.97
2023-05-22T14:13:23.101Z,3.10
2023-05-22T14:15:50.404Z,2.97
2023-05-22T14:18:17.610Z,2.70
2023-05-22T14:20:46.136Z,3.15
2023-05-22T14:23:14.449Z,2.60
2023-05-22T14:25:43.189Z,2.60
2023-05-22T14:28:14.187Z,2.70
2023-05-22T14:30:41.757Z,2.90
2023-05-22T14:33:08.966Z,2.65
2023-05-22T14:35:36.182Z,2.83
2023-05-22T14:38:03.285Z,2.88
2023-05-22T14:40:30.389Z,2.60
2023-05-22T14:42:57.506Z,2.85
2023-05-22T14:45:24.657Z,2.58
2023-05-22T14:47:51.855Z,2.90
2023-05-22T14:50:20.778Z,2.60
2023-05-22T14:52:49.299Z,2.78
2023-05-22T14:55:17.162Z,2.60
2023-05-22T14:57:44.403Z,2.95
2023-05-22T15:00:12.553Z,2.83
2023-05-22T15:02:40.288Z,2.97
2023-05-22T15:05:08.044Z,2.58
2023-05-22T15:07:44.078Z,2.85
2023-05-22T15:10:12.436Z,2.60
2023-05-22T15:12:39.664Z,2.53
2023-05-22T15:15:07.338Z,2.72
2023-05-22T15:17:34.549Z,2.97
2023-05-22T15:20:01.756Z,3.50
2023-05-22T15:22:28.841Z,2.85
2023-05-22T15:25:17.006Z,2.60
2023-05-22T15:27:44.130Z,2.85
2023-05-22T15:30:12.457Z,2.58
2023-05-22T15:32:39.745Z,2.90
2023-05-22T15:35:07.761Z,2.75
2023-05-22T15:37:36.537Z,2.70
2023-05-22T15:40:04.650Z,2.60
2023-05-22T15:42:32.182Z,2.65
2023-05-22T15:45:00.202Z,2.75
2023-05-22T15:47:27.653Z,3.38
2023-05-22T15:49:56.154Z,2.63
2023-05-22T15:52:24.712Z,2.60
2023-05-22T15:54:52.111Z,2.78
2023-05-22T15:57:19.257Z,2.95
2023-05-22T15:59:47.518Z,2.80
2023-05-22T16:02:14.985Z,3.00
2023-05-22T16:05:35.355Z,2.80
2023-05-22T16:08:02.533Z,2.78
2023-05-22T16:10:29.581Z,2.85
2023-05-22T16:12:58.985Z,3.50
2023-05-22T16:15:26.114Z,2.70
2023-05-22T16:17:55.205Z,3.25
2023-05-22T16:20:35.815Z,3.10
2023-05-22T16:23:03.073Z,3.20
2023-05-22T16:25:30.219Z,3.35
2023-05-22T16:27:58.785Z,2.88
2023-05-22T16:30:25.977Z,4.50
2023-05-22T16:32:53.121Z,2.90
2023-05-22T16:35:22.292Z,3.28
2023-05-22T16:37:50.295Z,2.92
2023-05-22T16:40:18.688Z,2.72
2023-05-22T16:42:45.974Z,3.20
2023-05-22T16:45:13.810Z,2.92
2023-05-22T16:47:41.012Z,2.97
2023-05-22T16:50:09.087Z,3.20
2023-05-22T16:53:05.447Z,3.20
2023-05-22T16:55:32.618Z,3.25
2023-05-22T16:58:00.234Z,2.80
2023-05-22T17:01:06.586Z,3.13
2023-05-22T17:03:34.476Z,3.80
2023-05-22T17:06:03.179Z,2.90
2023-05-22T17:08:32.805Z,3.08
2023-05-22T17:10:59.942Z,2.88
2023-05-22T17:13:27.126Z,3.17
2023-05-22T17:15:56.204Z,3.45
2023-05-22T17:18:23.435Z,2.78
2023-05-22T17:20:54.077Z,2.90
2023-05-22T17:23:21.242Z,3.42
2023-05-22T17:25:48.779Z,3.58
2023-05-22T17:28:15.916Z,3.38
2023-05-22T17:30:46.791Z,3.10
2023-05-22T17:33:14.206Z,3.20
2023-05-22T17:35:42.396Z,3.40
2023-05-22T17:38:09.637Z,3.30
2023-05-22T17:40:44.829Z,3.60
2023-05-22T17:43:39.518Z,3.47
2023-05-22T17:46:35.538Z,3.90
2023-05-22T17:49:02.883Z,3.70
2023-05-22T17:51:29.981Z,3.40
2023-05-22T17:53:59.166Z,4.07
2023-05-22T17:56:26.807Z,3.60
2023-05-22T17:59:01.965Z,4.25
2023-05-22T18:01:29.709Z,3.45
2023-05-22T18:03:57.089Z,3.22
2023-05-22T18:06:24.540Z,3.00
2023-05-22T18:08:51.989Z,4.03
2023-05-22T18:11:52.196Z,4.00
2023-05-22T18:14:19.552Z,3.60
2023-05-22T18:16:46.638Z,3.33
2023-05-22T18:19:13.879Z,3.35
2023-05-22T18:21:41.027Z,3.40
2023-05-22T18:24:08.466Z,3.67
2023-05-22T18:26:35.649Z,4.30
2023-05-22T18:29:28.486Z,3.67
2023-05-22T18:31:55.719Z,4.38
2023-05-22T18:34:22.896Z,3.67
2023-05-22T18:36:50.912Z,4.10
2023-05-22T18:39:18.037Z,3.45
2023-05-22T18:41:45.239Z,3.97
2023-05-22T18:44:14.188Z,3.67
2023-05-22T18:46:41.389Z,3.75
2023-05-22T18:49:08.500Z,3.80
2023-05-22T18:51:36.020Z,3.53
2023-05-22T18:54:03.156Z,4.50
2023-05-22T18:56:30.318Z,4.03
2023-05-22T18:58:57.443Z,4.38
2023-05-22T19:01:24.722Z,4.40
2023-05-22T19:03:51.884Z,3.95
2023-05-22T19:06:19.951Z,4.05
2023-05-22T19:08:47.116Z,3.63
2023-05-22T19:11:14.377Z,4.85
2023-05-22T19:13:41.757Z,3.95
2023-05-22T19:16:14.153Z,4.10
2023-05-22T19:18:41.655Z,3.88
2023-05-22T19:21:08.875Z,3.97
2023-05-22T19:23:36.976Z,3.85
2023-05-22T19:26:04.348Z,4.03
2023-05-22T19:28:33.517Z,3.97
2023-05-22T19:31:03.196Z,3.83
2023-05-22T19:33:33.887Z,4.38
2023-05-22T19:36:06.801Z,3.75
2023-05-22T19:38:34.030Z,3.45
2023-05-22T19:41:01.212Z,4.07
2023-05-22T19:43:31.447Z,3.90
2023-05-22T19:45:58.686Z,4.40
2023-05-22T19:48:27.127Z,3.97
2023-05-22T19:50:58.917Z,4.00
2023-05-22T19:53:26.638Z,4.07
2023-05-22T19:55:53.908Z,3.75
2023-05-22T19:58:21.362Z,5.40
2023-05-22T20:00:48.799Z,5.15
2023-05-22T20:03:27.811Z,4.10
2023-05-22T20:05:55.099Z,4.10
2023-05-22T20:08:22.632Z,4.90
2023-05-22T20:11:15.578Z,5.13
2023-05-22T20:13:42.733Z,4.00
2023-05-22T20:16:12.840Z,5.43
2023-05-22T20:18:41.256Z,5.50
2023-05-22T20:21:08.544Z,4.95
2023-05-22T20:23:35.859Z,4.53
2023-05-22T20:26:05.793Z,5.00
2023-05-22T20:28:32.941Z,5.88
2023-05-22T20:31:00.157Z,4.68
2023-05-22T20:33:28.154Z,4.40
2023-05-22T20:35:55.517Z,4.68
2023-05-22T20:38:22.766Z,4.78
2023-05-22T20:41:15.607Z,4.32
2023-05-22T20:43:43.568Z,4.63
2023-05-22T20:46:10.912Z,4.75
2023-05-22T20:48:38.655Z,4.68
2023-05-22T20:51:06.062Z,7.47
2023-05-22T20:53:33.226Z,5.55
2023-05-22T20:56:00.653Z,6.38
2023-05-22T20:58:28.658Z,5.70
2023-05-22T21:00:56.194Z,5.82
2023-05-22T21:03:25.577Z,4.93
2023-05-22T21:05:53.078Z,4.72
2023-05-22T21:11:37.778Z,6.30
2023-05-22T21:14:05.022Z,5.35
2023-05-22T21:16:32.567Z,5.70
2023-05-22T21:19:00.261Z,6.18
2023-05-22T21:21:27.397Z,5.30
2023-05-22T21:23:54.650Z,4.93
2023-05-22T21:26:23.164Z,4.45
2023-05-22T21:29:41.118Z,4.65
2023-05-22T21:32:08.433Z,5.03
2023-05-22T21:34:35.759Z,4.72
2023-05-22T21:37:02.938Z,5.47
2023-05-22T21:39:30.077Z,5.30
2023-05-22T21:41:57.316Z,5.72
2023-05-22T21:44:24.752Z,5.10
2023-05-22T21:46:51.948Z,5.13
2023-05-22T21:49:19.125Z,5.53
2023-05-22T21:51:53.682Z,5.60
2023-05-22T21:54:21.460Z,4.95
2023-05-22T21:56:48.855Z,4.90
2023-05-22T21:59:16.100Z,4.63
2023-05-22T22:01:43.570Z,4.50
2023-05-22T22:04:13.683Z,5.03
2023-05-22T22:06:41.117Z,4.93
2023-05-22T22:09:09.726Z,5.05
2023-05-22T22:11:36.901Z,5.40
2023-05-22T22:14:04.357Z,6.15
2023-05-22T22:16:36.109Z,5.90
2023-05-22T22:19:03.520Z,5.10
2023-05-22T22:21:31.784Z,5.57
2023-05-22T22:23:59.143Z,5.15
2023-05-22T22:26:45.718Z,5.43
2023-05-22T22:29:12.935Z,4.55
2023-05-22T22:31:47.064Z,4.32
2023-05-22T22:34:14.462Z,5.07
2023-05-22T22:36:42.062Z,4.65
2023-05-22T22:39:09.222Z,4.90
2023-05-22T22:41:36.398Z,4.70
2023-05-22T22:44:03.617Z,4.63
2023-05-22T22:46:31.501Z,4.47
2023-05-22T22:49:14.274Z,4.63
2023-05-22T22:51:41.455Z,4.43
2023-05-22T22:54:08.696Z,5.65
2023-05-22T22:56:36.058Z,5.28
2023-05-22T22:59:03.881Z,5.10
2023-05-22T23:01:44.621Z,4.93
2023-05-22T23:04:13.137Z,5.03
2023-05-22T23:06:43.217Z,6.00
2023-05-22T23:09:11.327Z,4.95
2023-05-22T23:11:38.915Z,5.13
2023-05-22T23:15:06.169Z,4.30
2023-05-22T23:17:33.362Z,5.80
2023-05-22T23:20:01.131Z,5.55
2023-05-22T23:22:28.309Z,4.80
2023-05-22T23:24:55.572Z,5.50
2023-05-22T23:27:22.727Z,5.03
2023-05-22T23:29:49.950Z,4.78
2023-05-22T23:32:17.081Z,4.95
2023-05-22T23:34:44.311Z,5.03
2023-05-22T23:37:11.502Z,4.93
2023-05-22T23:39:38.942Z,5.18
2023-05-22T23:42:09.934Z,5.40
2023-05-22T23:44:37.407Z,5.18
2023-05-22T23:47:04.886Z,4.57
2023-05-22T23:49:32.298Z,4.72
2023-05-22T23:51:59.833Z,4.80
2023-05-22T23:54:27.005Z,4.95
2023-05-22T23:56:54.281Z,4.97
2023-05-22T23:59:21.862Z,4.43
